Flight Track Log - Related Links

Times and Time Zones

All times are in EDT time to prevent confusion due to time zone crossing. See the RPA3436 flight status page for this flight to view local times or setup timezone preferences in your user account.

Time Position Orientation Groundspeed Altitude Reporting Facility
EDT Latitude Longitude Course Direction KTS MPH feet Rate Location/Type
Tue 08:20:04 AM 32.8586 -80.0364 13° North 172 198 1,400  Level Jacksonville Center
Tue 08:21:00 AM 33.1501 -79.9500 North  Level FlightAware Approximate
Tue 08:21:04 AM 32.8908 -79.9858 53° Northeast 205 236 3,200  Level Jacksonville Center
Tue 08:22:00 AM 33.2403 -79.9286 North  Level FlightAware Approximate
Tue 08:22:04 AM 32.9483 -79.9419 33° Northeast 219 252 6,200  Level Jacksonville Center
Tue 08:23:00 AM 33.3294 -79.9020 23° Northeast  Level FlightAware Approximate
Tue 08:23:04 AM 33.0275 -79.9344 North 248 285 9,000  Level Jacksonville Center
Tue 08:24:00 AM 33.4180 -79.8731 North  Level FlightAware Approximate
Tue 08:24:04 AM 33.1083 -79.9094 15° North 269 310 10,700  Level Jacksonville Center
Tue 08:25:00 AM 33.5084 -79.8500 13° North  Level FlightAware Approximate
Tue 08:25:04 AM 33.1969 -79.8592 25° Northeast 311 358 13,000  Level Jacksonville Center
Tue 08:26:04 AM 33.2875 -79.8114 24° Northeast 337 388 15,200 2,050 Climbing Jacksonville Center
Tue 08:27:04 AM 33.3761 -79.7611 25° Northeast 368 423 17,100 1,700 Climbing Jacksonville Center
Tue 08:28:04 AM 33.4750 -79.7078 24° Northeast 375 432 18,600 1,750 Climbing Jacksonville Center
Tue 08:29:04 AM 33.5756 -79.6494 26° Northeast 381 438 20,600 1,850 Climbing Jacksonville Center
Tue 08:30:04 AM 33.6786 -79.5931 24° Northeast 396 456 22,300 1,700 Climbing Jacksonville Center
Tue 08:31:04 AM 33.7833 -79.5342 25° Northeast 401 461 24,000 1,350 Climbing Jacksonville Center
Tue 08:32:04 AM 33.8903 -79.4778 24° Northeast 406 467 25,000 500 Climbing Jacksonville Center
Tue 08:33:04 AM 33.9953 -79.4183 25° Northeast 412 474 25,000  Level Jacksonville Center
Tue 08:34:04 AM 34.1061 -79.3589 24° Northeast 417 480 25,000 98 Level Jacksonville Center
Tue 08:36:07 AM 34.3336 -79.2261 26° Northeast 429 494 25,300 725 Climbing Washington Center
Tue 08:37:06 AM 34.4419 -79.1628 26° Northeast 435 501 27,200 1,500 Climbing Washington Center
Tue 08:38:07 AM 34.5522 -79.1019 24° Northeast 430 495 28,300 1,339 Climbing Washington Center
Tue 08:39:07 AM 34.6583 -79.0383 26° Northeast 430 495 29,900 1,339 Climbing Washington Center
Tue 08:40:08 AM 34.7644 -78.9772 25° Northeast 425 489 31,000 555 Climbing Washington Center
Tue 08:41:06 AM 34.8769 -78.9136 25° Northeast 425 489 31,000  Level Washington Center
Tue 08:42:06 AM 34.9894 -78.8447 27° Northeast 436 502 31,000  Level Washington Center
Tue 08:43:06 AM 35.1039 -78.7783 25° Northeast 436 502 31,000  Level Washington Center
Tue 08:44:07 AM 35.2203 -78.7117 25° Northeast 442 509 31,000  Level Washington Center
Tue 08:45:08 AM 35.3325 -78.6447 26° Northeast 448 516 31,000  Level Washington Center
Tue 08:46:06 AM 35.4619 -78.5681 26° Northeast 454 522 31,000  Level Washington Center
Tue 08:47:06 AM 35.5636 -78.5053 27° Northeast 454 522 31,000  Level Washington Center
Tue 08:48:06 AM 35.6947 -78.4308 25° Northeast 462 532 31,000  Level Washington Center
Tue 08:49:07 AM 35.8069 -78.3633 26° Northeast 455 524 31,000  Level Washington Center
Tue 08:50:08 AM 35.9211 -78.2953 26° Northeast 455 524 31,000  Level Washington Center
Tue 08:51:08 AM 36.0353 -78.2247 27° Northeast 449 517 31,000 -102 Level Washington Center
Tue 08:52:06 AM 36.1494 -78.1567 26° Northeast 449 517 30,800 -1,109 Descending Washington Center
Tue 08:53:07 AM 36.2614 -78.0908 25° Northeast 449 517 28,800 -1,884 Descending Washington Center
Tue 08:54:07 AM 36.3733 -78.0219 26° Northeast 449 517 27,000 -893 Descending Washington Center
Tue 08:55:08 AM 36.4811 -77.9556 26° Northeast 444 511 27,000  Level Washington Center
Tue 08:56:05 AM 36.5931 -77.8839 27° Northeast 444 511 27,000 -559 Level Washington Center
Tue 08:57:06 AM 36.7089 -77.8278 21° North 444 511 25,900 -1,131 Descending Washington Center
Tue 08:58:07 AM 36.8247 -77.7792 19° North 439 505 24,700 -1,190 Descending Washington Center
Tue 08:59:07 AM 36.9403 -77.7331 18° North 432 497 23,500 -1,210 Descending Washington Center
Tue 09:00:06 AM 37.0517 -77.6842 19° North 427 491 22,300 -750 Descending Washington Center
Tue 09:01:07 AM 37.1631 -77.6378 18° North 427 491 22,000 -149 Descending Washington Center
Tue 09:02:07 AM 37.2764 -77.5911 18° North 427 491 22,000  Level Washington Center
Tue 09:03:05 AM 37.3897 -77.5444 18° North 427 491 22,000  Level Washington Center
Tue 09:04:06 AM 37.5011 -77.4950 19° North 427 491 22,000 -98 Level Washington Center
Tue 09:05:07 AM 37.6144 -77.4481 18° North 427 491 21,800 -1,082 Descending Washington Center
Tue 09:06:08 AM 37.7258 -77.4008 19° North 427 491 19,800 -1,916 Descending Washington Center
Tue 09:07:06 AM 37.8328 -77.3533 19° North 415 478 18,000 -1,815 Descending Washington Center
Tue 09:08:07 AM 37.9378 -77.3083 19° North 405 466 16,200 -1,835 Descending Washington Center
Tue 09:09:07 AM 38.0386 -77.2686 17° North 395 455 14,300 -1,785 Descending Washington Center
Tue 09:10:08 AM 38.1392 -77.2258 18° North 389 448 12,600 -1,765 Descending Washington Center
Tue 09:11:06 AM 38.2356 -77.1831 19° North 376 433 10,800 -1,322 Descending Washington Center
Tue 09:12:06 AM 38.3236 -77.1533 15° North 351 404 10,000 -400 Descending Washington Center
Tue 09:13:06 AM 38.3989 -77.1494 North 304 350 10,000 -545 Level Washington Center
Tue 09:14:07 AM 38.4739 -77.1431 North 277 319 8,900 -984 Descending Washington Center
Tue 09:15:08 AM 38.5492 -77.1342 North 266 306 8,000 -446 Descending Washington Center
Tue 09:16:08 AM 38.5689 -77.0575 72° East 200 230 8,000  Level Washington Center
Tue 09:17:06 AM 38.5803 -76.9781 80° East 195 224 8,000 -252 Level Washington Center
Tue 09:18:07 AM 38.5494 -76.9269 128° Southeast 161 185 7,500 -885 Descending Washington Center
Tue 09:19:08 AM 38.4892 -76.9206 175° South 168 193 6,200 -1,222 Descending Washington Center
Tue 09:20:54 AM 38.5167 -77.0000 294° West 196 226 4,100 -767 Descending Potomac TRACON
Tue 09:22:00 AM 38.5667 -77.0000 360° North 173 199 4,000 -50 Descending Potomac TRACON
Tue 09:22:55 AM 38.6000 -77.0167 339° North 164 189 4,000 -313 Level Potomac TRACON
Tue 09:23:55 AM 38.6333 -77.0500 322° Northwest 170 196 3,400 -750 Descending Potomac TRACON
Tue 09:24:55 AM 38.6833 -77.0333 15° North 154 177 2,500 -522 Descending Potomac TRACON
Tue 09:25:50 AM 38.7167 -77.0333 360° North 153 176 2,400 -109 Descending Potomac TRACON

Login

Don't have an account? Register now (free) for customized features, flight alerts, and more!